Aviation Digital Data Service (ADDS)

Output produced by METARs form (1008 UTC 25 October 2014)
found at http://aviationweather.gov/adds/metars/
 
KHKY 250535Z 2506/2606 31003KT P6SM SKC 
     FM251700 24003KT P6SM SKC 
     FM260500 30004KT P6SM SKC